Time;durP1;ratioP1;P1;durP2;ratioP2;P2;SDS_P1;SDS_P2;PMS_P1;PMS_P2;Temp;Humidity;BMP_temperature;BMP_pressure;BME280_temperature;BME280_humidity;BME280_pressure;Samples;Min_cycle;Max_cycle;Signal;HPM_P1;HPM_P2
2023/09/29 00:01:37;;;;;;;6.25;3.45;;;;;16.80;94509.00;;;;7394076;19;20144;-74
2023/09/29 00:04:08;;;;;;;3.97;2.47;;;;;16.70;94502.00;;;;7395469;19;20128;-74
2023/09/29 00:06:49;;;;;;;5.60;2.92;;;;;16.70;94505.00;;;;7393978;19;20663;-75
2023/09/29 00:09:24;;;;;;;4.57;3.10;;;;;16.50;94512.00;;;;7397096;19;20151;-75
2023/09/29 00:11:51;;;;;;;5.68;3.22;;;;;16.40;94507.00;;;;7395128;19;20148;-75
2023/09/29 00:14:27;;;;;;;6.00;3.20;;;;;16.30;94502.00;;;;7396756;19;20136;-75
2023/09/29 00:16:55;;;;;;;4.15;2.78;;;;;16.40;94512.00;;;;7394121;19;20132;-74
2023/09/29 00:19:31;;;;;;;4.60;2.88;;;;;16.70;94514.00;;;;7394500;19;20128;-78
2023/09/29 00:21:59;;;;;;;4.10;2.80;;;;;16.80;94503.00;;;;7396782;19;20133;-76
2023/09/29 00:24:34;;;;;;;6.82;3.30;;;;;16.60;94510.00;;;;7394792;19;20137;-76
2023/09/29 00:27:03;;;;;;;4.25;2.72;;;;;16.50;94511.00;;;;7395024;19;20129;-76
2023/09/29 00:29:32;;;;;;;5.68;2.97;;;;;16.40;94506.00;;;;7395734;19;20161;-76
2023/09/29 00:32:07;;;;;;;7.00;3.00;;;;;16.30;94505.00;;;;7394353;19;20153;-77
2023/09/29 00:34:36;;;;;;;4.20;3.05;;;;;16.20;94508.00;;;;7394231;19;20137;-77
2023/09/29 00:37:10;;;;;;;7.07;3.13;;;;;16.10;94511.00;;;;7392550;19;20140;-76
2023/09/29 00:39:38;;;;;;;6.18;3.10;;;;;16.00;94507.00;;;;7396144;19;20599;-76
2023/09/29 00:42:12;;;;;;;3.75;3.17;;;;;16.00;94505.00;;;;7394134;19;20480;-76
2023/09/29 00:44:40;;;;;;;7.93;3.00;;;;;16.00;94500.00;;;;7394062;19;20492;-76
2023/09/29 00:47:15;;;;;;;9.05;3.13;;;;;16.10;94496.00;;;;7395374;19;20154;-76
2023/09/29 00:49:46;;;;;;;8.13;3.20;;;;;16.00;94500.00;;;;7396715;19;20137;-76
2023/09/29 00:52:23;;;;;;;4.15;2.42;;;;;16.10;94501.00;;;;7395175;19;20148;-77
2023/09/29 00:54:57;;;;;;;3.83;2.80;;;;;15.90;94501.00;;;;7394813;19;20143;-78
2023/09/29 00:57:34;;;;;;;11.27;3.60;;;;;15.80;94492.00;;;;7393456;19;20140;-76
2023/09/29 01:00:14;;;;;;;3.97;2.80;;;;;15.80;94498.00;;;;7394144;19;20140;-76
2023/09/29 01:02:45;;;;;;;4.35;2.75;;;;;15.60;94504.00;;;;7394186;19;20174;-76
2023/09/29 01:05:35;;;;;;;5.22;2.60;;;;;15.70;94499.00;;;;7392587;19;20203;-78
2023/09/29 01:08:20;;;;;;;3.58;2.53;;;;;15.60;94496.00;;;;7397642;19;20140;-78
2023/09/29 01:10:55;;;;;;;3.72;2.60;;;;;15.60;94488.00;;;;7402863;19;20188;-78
2023/09/29 01:13:23;;;;;;;4.43;2.88;;;;;15.60;94490.00;;;;7399530;19;20152;-78
2023/09/29 01:15:51;;;;;;;3.95;2.88;;;;;15.50;94488.00;;;;7398836;19;20137;-78
2023/09/29 01:18:25;;;;;;;3.35;2.22;;;;;15.60;94495.00;;;;7402439;19;20125;-78
2023/09/29 01:21:01;;;;;;;5.15;2.88;;;;;15.70;94495.00;;;;7401014;19;20153;-78
2023/09/29 01:23:36;;;;;;;3.53;2.75;;;;;15.70;94493.00;;;;7400525;19;20168;-78
2023/09/29 01:26:11;;;;;;;4.82;2.05;;;;;15.80;94491.00;;;;7400084;19;20172;-78
2023/09/29 01:28:39;;;;;;;5.03;3.00;;;;;16.00;94484.00;;;;7400595;19;20144;-79
2023/09/29 01:31:13;;;;;;;2.50;2.20;;;;;15.90;94480.00;;;;7399465;19;20234;-79
2023/09/29 01:33:41;;;;;;;3.80;2.45;;;;;15.90;94482.00;;;;7399585;19;20148;-79
2023/09/29 01:36:15;;;;;;;4.88;2.33;;;;;15.90;94480.00;;;;7401180;19;20124;-79
2023/09/29 01:38:49;;;;;;;3.80;2.53;;;;;15.80;94476.00;;;;7399265;19;20144;-77
2023/09/29 01:41:25;;;;;;;3.67;2.70;;;;;15.70;94483.00;;;;7400171;19;20144;-76
2023/09/29 01:43:53;;;;;;;4.25;2.60;;;;;15.60;94475.00;;;;7398155;19;20193;-77
2023/09/29 01:46:22;;;;;;;4.40;2.20;;;;;15.50;94470.00;;;;7400816;19;20153;-77
2023/09/29 01:48:57;;;;;;;6.82;2.15;;;;;15.20;94473.00;;;;7400350;19;20152;-78
2023/09/29 01:51:32;;;;;;;3.55;2.40;;;;;15.30;94469.00;;;;7399597;19;20611;-77
2023/09/29 01:54:07;;;;;;;4.35;2.47;;;;;15.80;94469.00;;;;7397434;19;20483;-80
2023/09/29 01:56:42;;;;;;;4.63;2.47;;;;;16.00;94476.00;;;;7399457;19;20135;-77
2023/09/29 01:59:16;;;;;;;4.15;2.28;;;;;16.40;94467.00;;;;7399914;19;20183;-80
2023/09/29 02:01:50;;;;;;;5.40;2.70;;;;;16.60;94456.00;;;;7398747;19;20158;-79
2023/09/29 02:04:25;;;;;;;3.28;2.40;;;;;16.60;94460.00;;;;7400295;19;20132;-77
2023/09/29 02:07:05;;;;;;;3.03;2.15;;;;;16.40;94467.00;;;;7399403;19;20482;-78
2023/09/29 02:09:42;;;;;;;2.58;2.13;;;;;16.30;94464.00;;;;7400284;19;20140;-77
2023/09/29 02:12:10;;;;;;;6.03;2.55;;;;;16.40;94466.00;;;;7397688;19;20499;-77
2023/09/29 02:14:44;;;;;;;6.05;2.30;;;;;16.30;94456.00;;;;7399932;19;20157;-76
2023/09/29 02:17:18;;;;;;;3.65;2.72;;;;;16.20;94462.00;;;;7398867;19;20467;-77
2023/09/29 02:19:52;;;;;;;2.85;2.20;;;;;16.00;94462.00;;;;7398533;19;20157;-77
2023/09/29 02:22:21;;;;;;;3.28;2.35;;;;;16.30;94465.00;;;;7399651;19;20714;-77
2023/09/29 02:24:55;;;;;;;3.33;2.40;;;;;16.50;94457.00;;;;7400325;19;20124;-77
2023/09/29 02:27:25;;;;;;;8.98;2.60;;;;;16.70;94455.00;;;;7399074;19;20160;-77
2023/09/29 02:30:01;;;;;;;3.65;2.60;;;;;16.80;94455.00;;;;7398427;19;20492;-77
2023/09/29 02:32:29;;;;;;;6.03;2.38;;;;;16.80;94450.00;;;;7399419;19;20133;-78
2023/09/29 02:35:04;;;;;;;6.82;2.90;;;;;16.80;94450.00;;;;7397774;19;20148;-78
2023/09/29 02:37:39;;;;;;;2.83;2.22;;;;;16.80;94457.00;;;;7397076;19;20123;-77
2023/09/29 02:40:12;;;;;;;4.35;2.33;;;;;16.90;94456.00;;;;7397398;19;20136;-75
2023/09/29 02:42:47;;;;;;;7.53;2.53;;;;;17.00;94453.00;;;;7396011;19;20152;-74
2023/09/29 02:45:15;;;;;;;4.10;2.65;;;;;16.90;94446.00;;;;7399202;19;20487;-75
2023/09/29 02:47:52;;;;;;;4.38;2.90;;;;;17.00;94448.00;;;;7397657;19;20165;-75
2023/09/29 02:50:20;;;;;;;2.83;2.20;;;;;17.10;94451.00;;;;7397981;19;20137;-75
2023/09/29 02:52:55;;;;;;;4.07;2.10;;;;;17.10;94453.00;;;;7398760;19;20120;-75
2023/09/29 02:55:29;;;;;;;4.97;2.60;;;;;17.00;94449.00;;;;7398810;19;20141;-75
2023/09/29 02:58:04;;;;;;;3.35;2.33;;;;;17.00;94451.00;;;;7395590;19;20136;-75
2023/09/29 03:00:32;;;;;;;4.07;2.35;;;;;17.10;94446.00;;;;7397046;19;20156;-75
2023/09/29 03:03:09;;;;;;;3.78;2.30;;;;;17.40;94441.00;;;;7395907;19;20163;-75
2023/09/29 03:05:45;;;;;;;3.28;2.10;;;;;17.40;94444.00;;;;7395212;19;20655;-75
2023/09/29 03:08:27;;;;;;;6.13;2.55;;;;;17.40;94449.00;;;;7396772;19;20253;-75
2023/09/29 03:10:55;;;;;;;2.65;2.45;;;;;17.50;94442.00;;;;7399293;19;20583;-75
2023/09/29 03:13:30;;;;;;;3.47;2.58;;;;;17.70;94454.00;;;;7396757;19;20132;-76
2023/09/29 03:16:07;;;;;;;3.53;2.53;;;;;17.80;94449.00;;;;7395661;19;20145;-76
2023/09/29 03:18:37;;;;;;;5.90;2.42;;;;;17.80;94460.00;;;;7398105;19;20766;-74
2023/09/29 03:21:12;;;;;;;3.72;2.42;;;;;17.90;94460.00;;;;7397546;19;20117;-75
2023/09/29 03:23:46;;;;;;;4.47;2.30;;;;;18.10;94455.00;;;;7396847;19;20631;-75
2023/09/29 03:26:17;;;;;;;4.88;2.38;;;;;18.20;94458.00;;;;7398327;19;20596;-75
2023/09/29 03:28:54;;;;;;;3.85;2.40;;;;;18.30;94455.00;;;;7394875;19;20136;-75
2023/09/29 03:31:29;;;;;;;4.13;2.65;;;;;18.30;94458.00;;;;7393541;19;20136;-75
2023/09/29 03:34:01;;;;;;;4.55;2.45;;;;;18.30;94449.00;;;;7397379;19;20125;-76
2023/09/29 03:36:33;;;;;;;3.58;2.25;;;;;18.30;94450.00;;;;7397054;19;20147;-75
2023/09/29 03:39:09;;;;;;;3.30;2.40;;;;;18.30;94446.00;;;;7395159;19;20506;-75
2023/09/29 03:41:40;;;;;;;4.47;2.65;;;;;18.40;94445.00;;;;7396470;19;20156;-76
2023/09/29 03:44:12;;;;;;;3.40;2.42;;;;;18.50;94446.00;;;;7395059;19;20550;-75
2023/09/29 03:46:46;;;;;;;3.78;2.40;;;;;18.50;94455.00;;;;7394085;19;20125;-75
2023/09/29 03:49:14;;;;;;;6.50;2.40;;;;;18.40;94465.00;;;;7395667;19;20131;-75
2023/09/29 03:51:51;;;;;;;3.85;2.85;;;;;18.60;94453.00;;;;7396324;19;20580;-74
2023/09/29 03:54:18;;;;;;;3.70;2.65;;;;;18.80;94454.00;;;;7393571;19;20186;-76
2023/09/29 03:56:53;;;;;;;3.83;2.55;;;;;18.70;94468.00;;;;7396468;19;20140;-75
2023/09/29 03:59:30;;;;;;;3.30;2.50;;;;;18.90;94468.00;;;;7396732;19;20461;-74
2023/09/29 04:02:07;;;;;;;3.53;2.75;;;;;18.80;94475.00;;;;7392441;19;20184;-74
2023/09/29 04:04:41;;;;;;;6.88;2.50;;;;;18.80;94476.00;;;;7396039;19;20534;-75
2023/09/29 04:07:22;;;;;;;5.43;2.80;;;;;18.80;94470.00;;;;7394759;19;20180;-74
2023/09/29 04:09:59;;;;;;;5.38;2.95;;;;;18.60;94479.00;;;;7394749;19;20144;-75
2023/09/29 04:12:33;;;;;;;4.18;2.60;;;;;18.60;94475.00;;;;7395142;19;20135;-75
2023/09/29 04:15:01;;;;;;;3.58;2.88;;;;;18.70;94482.00;;;;7396356;19;20133;-75
2023/09/29 04:17:36;;;;;;;3.50;2.53;;;;;18.80;94487.00;;;;7395118;19;20133;-75
2023/09/29 04:20:05;;;;;;;3.78;2.63;;;;;19.00;94485.00;;;;7395141;19;20149;-76
2023/09/29 04:22:40;;;;;;;4.05;2.70;;;;;19.00;94483.00;;;;7396304;19;20135;-75
2023/09/29 04:25:16;;;;;;;4.47;2.53;;;;;18.90;94479.00;;;;7391159;19;20193;-75
2023/09/29 04:27:52;;;;;;;3.22;2.28;;;;;18.80;94481.00;;;;7390107;19;20193;-75
2023/09/29 04:30:21;;;;;;;5.30;2.80;;;;;18.90;94484.00;;;;7394715;19;20143;-75
2023/09/29 04:32:57;;;;;;;4.57;2.42;;;;;18.80;94483.00;;;;7395291;19;20160;-75
2023/09/29 04:35:31;;;;;;;2.65;2.40;;;;;18.70;94490.00;;;;7393418;19;20250;-75
2023/09/29 04:38:10;;;;;;;3.15;2.30;;;;;18.90;94480.00;;;;7393071;19;20146;-75
2023/09/29 04:40:44;;;;;;;3.75;2.75;;;;;19.00;94480.00;;;;7393839;19;20144;-74
2023/09/29 04:43:18;;;;;;;4.95;2.75;;;;;19.00;94481.00;;;;7398662;19;20143;-75
2023/09/29 04:45:52;;;;;;;7.22;2.35;;;;;19.00;94482.00;;;;7402801;19;20141;-75
2023/09/29 04:48:20;;;;;;;5.72;2.78;;;;;19.00;94483.00;;;;7400215;19;20467;-75
2023/09/29 04:50:54;;;;;;;5.22;2.65;;;;;19.10;94485.00;;;;7399571;19;20147;-75
2023/09/29 04:53:28;;;;;;;5.65;2.97;;;;;19.20;94483.00;;;;7402017;19;20454;-75
2023/09/29 04:56:00;;;;;;;3.28;2.70;;;;;19.30;94485.00;;;;7400427;19;20137;-75
2023/09/29 04:58:34;;;;;;;9.88;2.83;;;;;19.20;94489.00;;;;7397739;19;20133;-75
2023/09/29 05:01:03;;;;;;;4.68;2.83;;;;;19.50;94494.00;;;;7402570;19;20193;-74
2023/09/29 05:03:38;;;;;;;3.53;2.80;;;;;19.40;94492.00;;;;7398732;19;20141;-74
2023/09/29 05:06:14;;;;;;;5.30;2.78;;;;;19.50;94499.00;;;;7400930;19;20149;-75
2023/09/29 05:08:49;;;;;;;4.60;2.83;;;;;19.30;94496.00;;;;7400780;19;20145;-75
2023/09/29 05:11:24;;;;;;;3.85;2.60;;;;;19.30;94497.00;;;;7400620;19;20142;-74
2023/09/29 05:14:01;;;;;;;4.00;2.42;;;;;19.30;94496.00;;;;7400736;19;20938;-75
2023/09/29 05:16:35;;;;;;;5.93;2.58;;;;;19.30;94496.00;;;;7400900;19;20132;-74
2023/09/29 05:19:12;;;;;;;3.47;2.70;;;;;19.40;94498.00;;;;7397407;19;20136;-74
2023/09/29 05:21:46;;;;;;;6.30;2.88;;;;;19.40;94500.00;;;;7399475;19;20587;-74
2023/09/29 05:24:21;;;;;;;4.95;2.58;;;;;19.30;94497.00;;;;7401448;19;20556;-74
2023/09/29 05:26:58;;;;;;;6.10;2.90;;;;;19.20;94494.00;;;;7398853;19;20143;-75
2023/09/29 05:29:39;;;;;;;3.97;3.00;;;;;19.20;94496.00;;;;7395658;19;20543;-75
2023/09/29 05:32:09;;;;;;;3.80;2.70;;;;;19.20;94507.00;;;;7395402;19;20608;-75
2023/09/29 05:34:43;;;;;;;6.25;2.67;;;;;19.20;94505.00;;;;7397083;19;20610;-74
2023/09/29 05:37:17;;;;;;;6.07;2.85;;;;;19.20;94510.00;;;;7397237;19;20136;-75
2023/09/29 05:39:52;;;;;;;4.03;2.92;;;;;19.30;94502.00;;;;7400672;19;20157;-75
2023/09/29 05:42:30;;;;;;;4.35;2.90;;;;;19.40;94503.00;;;;7398910;19;20482;-75
2023/09/29 05:45:20;;;;;;;4.55;2.50;;;;;19.50;94507.00;;;;7399846;19;20588;-74
2023/09/29 05:47:51;;;;;;;6.72;2.70;;;;;19.50;94505.00;;;;7399184;19;20136;-75
2023/09/29 05:50:35;;;;;;;4.28;2.72;;;;;19.50;94511.00;;;;7393185;19;20184;-76
2023/09/29 05:53:04;;;;;;;3.75;2.55;;;;;19.70;94510.00;;;;7396519;19;20172;-75
2023/09/29 05:55:41;;;;;;;4.22;2.83;;;;;19.60;94509.00;;;;7394145;19;20145;-76
2023/09/29 05:58:17;;;;;;;3.65;2.60;;;;;19.70;94515.00;;;;7395624;19;20618;-76
2023/09/29 06:00:51;;;;;;;4.45;2.58;;;;;19.70;94516.00;;;;7397096;19;20140;-75
2023/09/29 06:03:19;;;;;;;4.25;2.58;;;;;19.80;94512.00;;;;7394888;19;20247;-75
2023/09/29 06:06:03;;;;;;;4.38;2.95;;;;;19.80;94514.00;;;;7397015;19;20623;-76
2023/09/29 06:08:44;;;;;;;5.65;2.67;;;;;19.80;94517.00;;;;7397448;19;20125;-76
2023/09/29 06:11:22;;;;;;;3.47;2.70;;;;;19.90;94512.00;;;;7389362;19;20584;-77
2023/09/29 06:13:58;;;;;;;4.80;2.83;;;;;19.90;94517.00;;;;7385499;19;20156;-77
2023/09/29 06:16:27;;;;;;;4.80;2.83;;;;;20.10;94517.00;;;;7385606;19;20137;-76
2023/09/29 06:19:02;;;;;;;3.58;2.85;;;;;20.10;94518.00;;;;7385594;19;20170;-76
2023/09/29 06:21:30;;;;;;;3.78;2.95;;;;;20.00;94521.00;;;;7390815;19;20173;-77
2023/09/29 06:24:12;;;;;;;5.25;3.20;;;;;20.00;94529.00;;;;7386089;19;20486;-76
2023/09/29 06:26:41;;;;;;;4.28;2.65;;;;;19.90;94529.00;;;;7382750;19;20149;-77
2023/09/29 06:29:16;;;;;;;5.18;2.80;;;;;20.00;94537.00;;;;7383842;19;20156;-77
2023/09/29 06:31:44;;;;;;;4.40;3.10;;;;;20.00;94539.00;;;;7384695;19;20125;-76
2023/09/29 06:34:12;;;;;;;6.68;2.72;;;;;20.10;94535.00;;;;7384399;19;20144;-76
2023/09/29 06:36:46;;;;;;;4.43;2.65;;;;;20.10;94535.00;;;;7385843;19;20571;-77
2023/09/29 06:39:14;;;;;;;5.20;2.55;;;;;20.20;94530.00;;;;7385192;19;20133;-77
2023/09/29 06:41:49;;;;;;;3.08;2.70;;;;;20.40;94531.00;;;;7386641;19;20145;-77
2023/09/29 06:44:17;;;;;;;3.50;2.42;;;;;20.50;94529.00;;;;7381549;19;20155;-77
2023/09/29 06:46:53;;;;;;;4.28;2.75;;;;;20.60;94529.00;;;;7383745;19;20135;-77
2023/09/29 06:49:21;;;;;;;4.43;2.47;;;;;20.60;94535.00;;;;7386035;19;20133;-77
2023/09/29 06:52:00;;;;;;;5.90;3.28;;;;;20.80;94533.00;;;;7384811;19;20157;-77
2023/09/29 06:54:28;;;;;;;4.50;2.55;;;;;21.00;94538.00;;;;7385775;19;20153;-77
2023/09/29 06:57:06;;;;;;;4.55;2.53;;;;;21.10;94522.00;;;;7386414;19;20135;-76
2023/09/29 06:59:36;;;;;;;4.15;2.70;;;;;21.20;94540.00;;;;7385270;19;20125;-77
2023/09/29 07:02:11;;;;;;;4.20;2.92;;;;;21.00;94540.00;;;;7383699;19;20627;-78
2023/09/29 07:04:39;;;;;;;3.40;2.70;;;;;21.00;94536.00;;;;7385433;19;20135;-76
2023/09/29 07:07:20;;;;;;;4.75;2.63;;;;;21.00;94531.00;;;;7380072;19;20183;-77
2023/09/29 07:09:48;;;;;;;3.30;2.78;;;;;21.00;94527.00;;;;7382662;19;20148;-77
2023/09/29 07:12:22;;;;;;;4.28;2.80;;;;;21.10;94541.00;;;;7384262;19;20152;-77
2023/09/29 07:14:51;;;;;;;8.82;2.65;;;;;21.50;94540.00;;;;7384188;19;20172;-77
2023/09/29 07:17:19;;;;;;;5.20;2.83;;;;;22.10;94537.00;;;;7382684;19;20622;-77
2023/09/29 07:19:53;;;;;;;3.55;2.72;;;;;22.30;94540.00;;;;7386260;19;20587;-82
2023/09/29 07:22:23;;;;;;;4.10;2.85;;;;;22.30;94542.00;;;;7380961;19;20145;-80
2023/09/29 07:24:57;;;;;;;4.63;2.58;;;;;22.30;94542.00;;;;7379602;19;20650;-81
2023/09/29 07:27:35;;;;;;;5.30;2.60;;;;;22.10;94515.00;;;;7385765;19;20750;-81
2023/09/29 07:30:04;;;;;;;3.20;2.55;;;;;22.00;94545.00;;;;7385123;19;20164;-82
2023/09/29 07:32:42;;;;;;;3.40;2.50;;;;;22.00;94551.00;;;;7381749;19;21004;-82
2023/09/29 07:35:18;;;;;;;5.10;2.58;;;;;21.80;94548.00;;;;7382345;19;20204;-81
2023/09/29 07:37:53;;;;;;;4.10;2.47;;;;;21.80;94551.00;;;;7381437;19;20127;-81
2023/09/29 07:40:21;;;;;;;6.03;2.40;;;;;21.60;94550.00;;;;7383335;19;20771;-81
2023/09/29 07:42:55;;;;;;;5.05;2.45;;;;;21.50;94564.00;;;;7381512;19;20603;-80
2023/09/29 07:45:29;;;;;;;4.05;2.53;;;;;21.50;94559.00;;;;7385024;19;20568;-83
2023/09/29 07:48:08;;;;;;;5.82;2.67;;;;;21.60;94559.00;;;;7379877;19;20135;-80
2023/09/29 07:50:46;;;;;;;4.20;2.42;;;;;21.60;94549.00;;;;7383883;19;20132;-79
2023/09/29 07:53:13;;;;;;;4.35;2.47;;;;;21.70;94549.00;;;;7379965;19;20149;-83
2023/09/29 07:55:48;;;;;;;3.67;2.40;;;;;21.60;94561.00;;;;7383468;19;20133;-78
2023/09/29 07:58:24;;;;;;;3.08;2.75;;;;;21.60;94549.00;;;;7380331;19;20128;-81
2023/09/29 08:00:54;;;;;;;5.07;3.20;;;;;21.50;94552.00;;;;7384760;19;20474;-81
2023/09/29 08:03:28;;;;;;;4.05;2.30;;;;;21.60;94547.00;;;;7383615;19;20144;-83
2023/09/29 08:06:17;;;;;;;3.13;2.30;;;;;21.60;94547.00;;;;7383438;19;20160;-82
2023/09/29 08:08:52;;;;;;;6.45;2.65;;;;;21.70;94550.00;;;;7382912;19;20136;-80
2023/09/29 08:11:27;;;;;;;3.55;2.35;;;;;21.80;94547.00;;;;7383456;19;20152;-78
2023/09/29 08:13:55;;;;;;;4.80;2.83;;;;;22.60;94548.00;;;;7378897;19;20183;-81
2023/09/29 08:16:30;;;;;;;3.17;2.40;;;;;23.10;94537.00;;;;7375871;19;20240;-78
2023/09/29 08:19:05;;;;;;;4.90;2.38;;;;;23.30;94544.00;;;;7386684;19;20141;-78
2023/09/29 08:21:41;;;;;;;6.13;2.70;;;;;23.20;94536.00;;;;7388454;19;20607;-82
2023/09/29 08:24:15;;;;;;;4.28;2.70;;;;;23.40;94550.00;;;;7390037;19;21722;-82
2023/09/29 08:26:49;;;;;;;3.78;2.42;;;;;23.10;94551.00;;;;7389008;19;20151;-83
2023/09/29 08:29:24;;;;;;;4.82;2.50;;;;;22.80;94551.00;;;;7390108;19;20150;-83
2023/09/29 08:32:01;;;;;;;5.78;2.17;;;;;22.30;94564.00;;;;7388030;19;20189;-80
2023/09/29 08:34:31;;;;;;;7.45;2.85;;;;;22.30;94548.00;;;;7388981;19;20133;-80
2023/09/29 08:37:11;;;;;;;6.47;2.47;;;;;23.10;94560.00;;;;7385794;19;21339;-77
2023/09/29 08:39:39;;;;;;;3.03;2.70;;;;;23.20;94558.00;;;;7386486;19;20647;-80
2023/09/29 08:42:37;;;;;;;5.35;2.95;;;;;23.30;94554.00;;;;7386749;19;20165;-77
2023/09/29 08:45:13;;;;;;;2.90;2.47;;;;;23.30;94540.00;;;;7389695;19;20639;-80
2023/09/29 08:47:41;;;;;;;3.95;2.53;;;;;23.40;94547.00;;;;7389297;19;20137;-81
2023/09/29 08:50:17;;;;;;;6.65;2.55;;;;;23.90;94534.00;;;;7390702;19;20148;-82
2023/09/29 08:52:53;;;;;;;3.45;2.67;;;;;24.60;94531.00;;;;7390898;19;20514;-84
2023/09/29 08:55:28;;;;;;;4.47;2.50;;;;;25.00;94531.00;;;;7389630;19;20495;-81
2023/09/29 08:58:09;;;;;;;5.45;2.83;;;;;24.90;94544.00;;;;7386958;19;20152;-81
2023/09/29 09:00:37;;;;;;;3.60;2.65;;;;;25.10;94551.00;;;;7388345;19;20168;-82
2023/09/29 09:03:19;;;;;;;5.38;3.00;;;;;24.50;94557.00;;;;7388137;19;20173;-79
2023/09/29 09:05:48;;;;;;;4.75;2.58;;;;;24.00;94555.00;;;;7387459;19;20136;-80
2023/09/29 09:08:29;;;;;;;4.60;2.78;;;;;24.10;94547.00;;;;7389854;19;20256;-82
2023/09/29 09:11:06;;;;;;;4.95;2.58;;;;;24.50;94554.00;;;;7390790;19;20591;-83
2023/09/29 09:13:59;;;;;;;3.67;2.80;;;;;24.90;94544.00;;;;7389824;19;20137;-83
2023/09/29 09:16:38;;;;;;;3.28;2.42;;;;;25.30;94544.00;;;;7388442;19;20208;-79
2023/09/29 09:19:09;;;;;;;4.28;2.42;;;;;25.30;94546.00;;;;7387235;19;20132;-84
2023/09/29 09:21:46;;;;;;;4.30;2.92;;;;;25.50;94546.00;;;;7388982;19;20184;-84
2023/09/29 09:24:23;;;;;;;3.65;2.65;;;;;25.50;94554.00;;;;7386050;19;20129;-81
2023/09/29 09:27:02;;;;;;;4.90;2.30;;;;;25.40;94555.00;;;;7384238;19;20133;-81
2023/09/29 09:29:38;;;;;;;3.35;2.30;;;;;25.50;94557.00;;;;7383913;19;20144;-82
2023/09/29 09:32:14;;;;;;;3.60;2.58;;;;;25.60;94551.00;;;;7389233;19;20458;-79
2023/09/29 09:34:42;;;;;;;3.60;2.30;;;;;25.60;94563.00;;;;7386973;19;20145;-80
2023/09/29 09:37:28;;;;;;;4.88;2.70;;;;;25.90;94552.00;;;;7387189;19;20599;-80
2023/09/29 09:40:05;;;;;;;4.72;2.38;;;;;26.20;94559.00;;;;7384753;19;20141;-75
2023/09/29 09:42:35;;;;;;;3.25;2.70;;;;;26.30;94552.00;;;;7386661;19;20155;-75
2023/09/29 09:45:09;;;;;;;3.22;2.28;;;;;26.40;94552.00;;;;7386532;19;20133;-74
2023/09/29 09:47:42;;;;;;;6.30;2.50;;;;;26.40;94547.00;;;;7385175;19;20470;-75
2023/09/29 09:50:19;;;;;;;2.72;2.30;;;;;26.40;94546.00;;;;7383897;19;20141;-75
2023/09/29 09:53:03;;;;;;;2.60;2.40;;;;;26.60;94567.00;;;;7387567;19;20166;-77
2023/09/29 09:55:39;;;;;;;2.75;2.55;;;;;26.10;94568.00;;;;7386584;19;20133;-75
2023/09/29 09:58:16;;;;;;;3.83;2.58;;;;;26.20;94565.00;;;;7385908;19;20145;-76
2023/09/29 10:00:55;;;;;;;4.07;2.40;;;;;26.60;94560.00;;;;7387544;19;20588;-76
2023/09/29 10:03:26;;;;;;;3.95;2.20;;;;;26.90;94550.00;;;;7386846;19;20159;-75
2023/09/29 10:06:09;;;;;;;2.30;2.00;;;;;26.80;94548.00;;;;7385620;19;20616;-75
2023/09/29 10:08:46;;;;;;;6.40;2.58;;;;;26.70;94553.00;;;;7384933;19;20528;-74
2023/09/29 10:11:26;;;;;;;3.05;2.28;;;;;26.90;94560.00;;;;7385239;19;20169;-76
2023/09/29 10:14:07;;;;;;;2.90;2.60;;;;;26.60;94552.00;;;;7383472;19;20124;-75
2023/09/29 10:16:42;;;;;;;4.05;2.53;;;;;26.80;94547.00;;;;7385089;19;20132;-75
2023/09/29 10:19:16;;;;;;;4.50;2.70;;;;;27.10;94561.00;;;;7383652;19;20147;-76
2023/09/29 10:21:53;;;;;;;4.63;2.55;;;;;26.60;94556.00;;;;7386312;19;20165;-74
2023/09/29 10:24:29;;;;;;;3.67;2.97;;;;;26.50;94577.00;;;;7385007;19;20146;-75
2023/09/29 10:27:11;;;;;;;4.10;2.50;;;;;25.80;94575.00;;;;7382754;19;20144;-75
2023/09/29 10:29:50;;;;;;;4.18;2.45;;;;;25.70;94569.00;;;;7387319;19;20136;-75
2023/09/29 10:32:33;;;;;;;3.72;2.58;;;;;26.10;94560.00;;;;7386163;19;20483;-74
2023/09/29 10:35:01;;;;;;;3.78;2.60;;;;;26.50;94559.00;;;;7383775;19;20522;-75
2023/09/29 10:37:41;;;;;;;2.90;2.50;;;;;27.00;94570.00;;;;7384161;19;20145;-75
2023/09/29 10:40:20;;;;;;;3.13;2.53;;;;;27.10;94559.00;;;;7385190;19;20216;-75
2023/09/29 10:43:02;;;;;;;3.47;2.78;;;;;27.40;94548.00;;;;7385405;19;20133;-74
2023/09/29 10:45:36;;;;;;;3.47;2.67;;;;;27.30;94549.00;;;;7382977;19;20136;-72
2023/09/29 10:48:11;;;;;;;3.88;2.95;;;;;27.10;94551.00;;;;7386494;19;20161;-73
2023/09/29 10:50:44;;;;;;;4.10;2.78;;;;;27.10;94573.00;;;;7386937;19;20129;-80
2023/09/29 10:53:22;;;;;;;2.60;2.40;;;;;26.70;94561.00;;;;7386013;19;20156;-79
2023/09/29 10:55:51;;;;;;;4.28;3.03;;;;;26.70;94543.00;;;;7386486;19;20165;-81
2023/09/29 10:58:27;;;;;;;3.22;2.90;;;;;26.60;94556.00;;;;7384413;19;20128;-74
2023/09/29 11:01:01;;;;;;;6.40;2.67;;;;;25.80;94541.00;;;;7382983;19;20177;-79
2023/09/29 11:03:36;;;;;;;4.15;2.90;;;;;25.20;94570.00;;;;7382703;19;20166;-77
2023/09/29 11:06:24;;;;;;;4.97;2.75;;;;;25.00;94575.00;;;;7383958;19;20184;-76
2023/09/29 11:08:59;;;;;;;6.43;2.78;;;;;25.10;94573.00;;;;7383943;19;20208;-79
2023/09/29 11:11:36;;;;;;;3.92;2.97;;;;;25.10;94571.00;;;;7383075;19;20128;-79
2023/09/29 11:14:04;;;;;;;3.45;2.70;;;;;25.60;94548.00;;;;7384300;19;20155;-79
2023/09/29 11:16:40;;;;;;;6.00;2.60;;;;;26.50;94531.00;;;;7386703;19;20579;-76
2023/09/29 11:19:15;;;;;;;6.75;2.60;;;;;26.90;94533.00;;;;7385169;19;20762;-74
2023/09/29 11:21:50;;;;;;;5.00;3.38;;;;;26.40;94551.00;;;;7384284;19;20618;-75
2023/09/29 11:24:24;;;;;;;3.40;2.92;;;;;26.20;94528.00;;;;7385935;19;20149;-76
2023/09/29 11:26:55;;;;;;;4.32;2.75;;;;;26.70;94538.00;;;;7384482;19;20176;-80
2023/09/29 11:29:29;;;;;;;3.65;2.70;;;;;27.70;94525.00;;;;7383958;19;20143;-78
2023/09/29 11:31:57;;;;;;;4.43;2.63;;;;;27.90;94517.00;;;;7384335;19;20486;-76
2023/09/29 11:34:32;;;;;;;6.97;2.95;;;;;27.70;94504.00;;;;7385052;19;20592;-76
2023/09/29 11:37:00;;;;;;;7.63;2.72;;;;;27.60;94516.00;;;;7384731;19;20129;-78
2023/09/29 11:39:30;;;;;;;5.00;3.13;;;;;27.60;94518.00;;;;7381193;19;20580;-80
2023/09/29 11:42:04;;;;;;;6.85;2.53;;;;;27.30;94519.00;;;;7381405;19;20490;-79
2023/09/29 11:44:38;;;;;;;3.63;3.05;;;;;27.70;94526.00;;;;7379247;19;20154;-77
2023/09/29 11:47:14;;;;;;;4.03;2.80;;;;;27.60;94523.00;;;;7381255;19;20851;-79
2023/09/29 11:49:49;;;;;;;3.45;2.50;;;;;27.70;94530.00;;;;7382477;19;20476;-81
2023/09/29 11:52:23;;;;;;;4.78;2.92;;;;;27.90;94489.00;;;;7381024;19;20133;-78
2023/09/29 11:54:50;;;;;;;5.63;2.90;;;;;29.00;94514.00;;;;7384806;19;20490;-75
2023/09/29 11:57:26;;;;;;;9.10;2.70;;;;;27.90;94518.00;;;;7382281;19;20761;-76
2023/09/29 11:59:54;;;;;;;5.70;2.53;;;;;27.60;94517.00;;;;7373228;19;20560;-76
2023/09/29 12:02:31;;;;;;;3.63;2.40;;;;;26.70;94522.00;;;;7376269;19;20509;-77
2023/09/29 12:05:02;;;;;;;3.00;2.38;;;;;26.10;94523.00;;;;7380264;19;20129;-79
2023/09/29 12:07:43;;;;;;;6.80;2.40;;;;;25.60;94517.00;;;;7378657;19;20512;-79
2023/09/29 12:10:18;;;;;;;3.90;2.42;;;;;25.60;94519.00;;;;7381542;19;20158;-74
2023/09/29 12:12:46;;;;;;;4.93;2.35;;;;;25.60;94523.00;;;;7379866;19;20657;-77
2023/09/29 12:15:22;;;;;;;3.22;2.47;;;;;25.50;94523.00;;;;7379247;19;20125;-77
2023/09/29 12:17:53;;;;;;;4.88;2.78;;;;;25.90;94516.00;;;;7382199;19;20160;-79
2023/09/29 12:20:31;;;;;;;3.05;2.45;;;;;25.70;94519.00;;;;7382048;19;20129;-76
2023/09/29 12:23:01;;;;;;;3.88;2.40;;;;;25.30;94529.00;;;;7380538;19;20164;-77
2023/09/29 12:25:36;;;;;;;3.58;2.50;;;;;24.90;94523.00;;;;7379664;19;20474;-76
2023/09/29 12:28:10;;;;;;;3.20;2.45;;;;;24.80;94531.00;;;;7380522;19;20117;-78
2023/09/29 12:30:38;;;;;;;2.95;2.33;;;;;25.10;94529.00;;;;7383263;19;20144;-80
2023/09/29 12:33:14;;;;;;;8.27;2.53;;;;;25.30;94513.00;;;;7383690;19;20136;-80
2023/09/29 12:35:42;;;;;;;3.33;2.13;;;;;26.30;94522.00;;;;7384984;19;20138;-75
2023/09/29 12:38:11;;;;;;;6.05;2.53;;;;;25.80;94525.00;;;;7379446;19;20139;-77
2023/09/29 12:40:47;;;;;;;3.95;2.30;;;;;25.60;94533.00;;;;7384982;19;20132;-81
2023/09/29 12:43:15;;;;;;;3.05;2.45;;;;;25.40;94544.00;;;;7381220;19;20172;-77
2023/09/29 12:45:50;;;;;;;3.25;2.60;;;;;25.00;94533.00;;;;7383177;19;20215;-77
2023/09/29 12:48:18;;;;;;;3.00;2.50;;;;;25.00;94539.00;;;;7385987;19;20153;-78
2023/09/29 12:50:55;;;;;;;3.05;2.30;;;;;25.10;94542.00;;;;7381940;19;20568;-78
2023/09/29 12:53:30;;;;;;;4.43;2.53;;;;;24.80;94544.00;;;;7383600;19;20588;-80